createdAt,value
2022-12-01T00:01:07.206Z,8.53
2022-12-01T00:03:34.046Z,7.95
2022-12-01T00:06:04.194Z,7.60
2022-12-01T00:08:31.932Z,8.77
2022-12-01T00:11:06.997Z,7.85
2022-12-01T00:13:34.382Z,8.93
2022-12-01T00:16:15.325Z,9.40
2022-12-01T00:18:42.435Z,8.88
2022-12-01T00:21:16.774Z,8.23
2022-12-01T00:23:48.018Z,9.05
2022-12-01T00:26:16.128Z,6.00
2022-12-01T00:28:43.134Z,8.30
2022-12-01T00:31:11.120Z,7.30
2022-12-01T00:33:38.202Z,6.90
2022-12-01T00:36:06.288Z,6.80
2022-12-01T00:38:33.848Z,7.23
2022-12-01T00:41:00.608Z,7.50
2022-12-01T00:43:27.228Z,7.90
2022-12-01T00:45:55.023Z,6.90
2022-12-01T00:48:21.885Z,7.97
2022-12-01T00:50:51.170Z,6.83
2022-12-01T00:53:18.085Z,7.97
2022-12-01T00:55:44.850Z,7.50
2022-12-01T00:58:11.465Z,8.30
2022-12-01T01:00:38.682Z,8.13
2022-12-01T01:03:07.054Z,8.00
2022-12-01T01:05:40.188Z,6.07
2022-12-01T01:08:09.079Z,7.68
2022-12-01T01:10:39.989Z,7.70
2022-12-01T01:13:06.726Z,7.30
2022-12-01T01:15:33.696Z,8.38
2022-12-01T01:18:00.498Z,6.32
2022-12-01T01:20:27.096Z,7.70
2022-12-01T01:22:53.740Z,8.10
2022-12-01T01:25:20.352Z,10.18
2022-12-01T01:27:47.023Z,9.38
2022-12-01T01:30:14.058Z,7.93
2022-12-01T01:32:40.695Z,8.52
2022-12-01T01:35:08.235Z,6.88
2022-12-01T01:37:34.955Z,7.95
2022-12-01T01:40:01.657Z,7.63
2022-12-01T01:42:28.410Z,8.30
2022-12-01T01:44:59.095Z,8.65
2022-12-01T01:47:26.607Z,7.32
2022-12-01T01:49:56.353Z,8.30
2022-12-01T01:52:23.741Z,7.30
2022-12-01T01:54:53.517Z,8.50
2022-12-01T01:57:26.794Z,9.18
2022-12-01T01:59:58.120Z,6.05
2022-12-01T02:02:25.650Z,7.80
2022-12-01T02:04:57.303Z,7.83
2022-12-01T02:07:24.114Z,7.40
2022-12-01T02:09:51.185Z,9.27
2022-12-01T02:12:42.125Z,7.85
2022-12-01T02:15:46.674Z,7.57
2022-12-01T02:18:32.719Z,8.95
2022-12-01T02:21:17.430Z,8.80
2022-12-01T02:23:49.728Z,7.82
2022-12-01T02:26:34.276Z,9.20
2022-12-01T02:29:30.092Z,7.93
2022-12-01T02:32:21.844Z,8.75
2022-12-01T02:35:14.567Z,8.55
2022-12-01T02:37:51.110Z,8.07
2022-12-01T02:40:20.945Z,8.98
2022-12-01T02:42:50.574Z,8.90
2022-12-01T02:45:40.992Z,8.10
2022-12-01T02:48:23.998Z,8.50
2022-12-01T02:50:52.619Z,8.50
2022-12-01T02:53:19.836Z,7.80
2022-12-01T02:55:48.716Z,9.77
2022-12-01T02:58:15.971Z,8.82
2022-12-01T03:01:11.622Z,8.77
2022-12-01T03:04:21.603Z,8.50
2022-12-01T03:06:56.040Z,9.50
2022-12-01T03:09:31.611Z,9.68
2022-12-01T03:12:05.739Z,10.90
2022-12-01T03:15:21.627Z,11.35
2022-12-01T03:18:23.625Z,10.70
2022-12-01T03:21:06.544Z,9.90
2022-12-01T03:23:39.654Z,10.52
2022-12-01T03:26:09.538Z,11.10
2022-12-01T03:28:46.152Z,9.93
2022-12-01T03:31:17.786Z,9.70
2022-12-01T03:33:52.239Z,10.70
2022-12-01T03:36:35.555Z,10.48
2022-12-01T03:39:06.851Z,10.07
2022-12-01T03:41:48.947Z,10.20
2022-12-01T03:44:29.598Z,10.95
2022-12-01T03:47:09.846Z,10.73
2022-12-01T03:49:37.687Z,11.30
2022-12-01T03:52:22.816Z,11.43
2022-12-01T03:55:08.407Z,11.52
2022-12-01T03:57:48.366Z,11.45
2022-12-01T04:00:15.776Z,11.02
2022-12-01T04:02:42.818Z,12.50
2022-12-01T04:05:09.550Z,11.70
2022-12-01T04:07:39.599Z,12.05
2022-12-01T04:10:07.012Z,11.65
2022-12-01T04:12:33.727Z,11.55
2022-12-01T04:15:07.992Z,11.80
2022-12-01T04:17:34.960Z,10.93
2022-12-01T04:20:01.912Z,11.80
2022-12-01T04:22:28.619Z,11.40
2022-12-01T04:24:55.337Z,13.65
2022-12-01T04:27:22.093Z,11.75
2022-12-01T04:29:49.043Z,11.87
2022-12-01T04:32:16.589Z,12.15
2022-12-01T04:34:43.255Z,12.15
2022-12-01T04:37:10.167Z,12.30
2022-12-01T04:39:36.802Z,11.55
2022-12-01T04:42:04.211Z,11.50
2022-12-01T04:44:34.808Z,11.93
2022-12-01T04:47:03.550Z,10.68
2022-12-01T04:49:30.459Z,11.77
2022-12-01T04:51:57.147Z,11.35
2022-12-01T04:54:24.024Z,12.70
2022-12-01T04:56:50.814Z,10.63
2022-12-01T04:59:17.626Z,11.05
2022-12-01T05:01:44.775Z,11.32
2022-12-01T05:04:13.397Z,10.23
2022-12-01T05:06:40.376Z,10.70
2022-12-01T05:09:07.595Z,10.85
2022-12-01T05:11:34.375Z,10.13
2022-12-01T05:14:01.243Z,10.27
2022-12-01T05:16:31.916Z,11.02
2022-12-01T05:19:20.149Z,10.13
2022-12-01T05:21:49.078Z,11.50
2022-12-01T05:24:17.392Z,11.20
2022-12-01T05:26:45.155Z,10.80
2022-12-01T05:29:12.764Z,10.93
2022-12-01T05:31:39.957Z,10.90
2022-12-01T05:34:07.994Z,11.55
2022-12-01T05:36:34.719Z,10.85
2022-12-01T05:39:01.442Z,10.82
2022-12-01T05:41:28.314Z,11.32
2022-12-01T05:43:55.084Z,11.48
2022-12-01T05:46:21.810Z,9.93
2022-12-01T05:48:48.517Z,10.40
2022-12-01T05:51:16.988Z,9.73
2022-12-01T05:53:44.279Z,10.60
2022-12-01T05:56:11.004Z,9.90
2022-12-01T05:58:37.684Z,9.32
2022-12-01T06:01:04.486Z,8.95
2022-12-01T06:03:31.199Z,8.40
2022-12-01T06:05:57.847Z,8.57
2022-12-01T06:08:24.723Z,8.20
2022-12-01T06:10:51.397Z,9.38
2022-12-01T06:13:18.087Z,9.10
2022-12-01T06:15:44.668Z,6.50
2022-12-01T06:18:11.337Z,8.40
2022-12-01T06:20:38.033Z,7.85
2022-12-01T06:23:04.823Z,8.20
2022-12-01T06:25:31.479Z,7.78
2022-12-01T06:27:58.918Z,6.78
2022-12-01T06:30:25.957Z,7.53
2022-12-01T06:32:52.628Z,8.25
2022-12-01T06:35:19.522Z,7.55
2022-12-01T06:37:46.264Z,7.85
2022-12-01T06:40:13.239Z,7.30
2022-12-01T06:42:39.867Z,8.43
2022-12-01T06:45:07.137Z,7.90
2022-12-01T06:47:33.871Z,9.10
2022-12-01T06:50:00.780Z,8.63
2022-12-01T06:52:27.437Z,9.10
2022-12-01T06:54:54.099Z,9.75
2022-12-01T06:57:21.070Z,9.02
2022-12-01T06:59:48.160Z,8.48
2022-12-01T07:02:16.828Z,8.38
2022-12-01T07:04:43.595Z,9.55
2022-12-01T07:07:12.045Z,8.40
2022-12-01T07:09:39.432Z,7.72
2022-12-01T07:12:06.644Z,7.53
2022-12-01T07:14:33.656Z,7.32
2022-12-01T07:17:00.336Z,7.45
2022-12-01T07:19:27.267Z,6.50
2022-12-01T07:21:53.970Z,6.90
2022-12-01T07:24:20.616Z,6.68
2022-12-01T07:26:48.158Z,7.15
2022-12-01T07:29:14.921Z,6.40
2022-12-01T07:31:41.618Z,7.05
2022-12-01T07:34:12.086Z,6.55
2022-12-01T07:36:39.153Z,6.68
2022-12-01T07:39:07.606Z,7.43
2022-12-01T07:41:35.580Z,6.70
2022-12-01T07:44:02.923Z,7.28
2022-12-01T07:46:29.653Z,7.35
2022-12-01T07:48:57.074Z,7.32
2022-12-01T07:51:25.675Z,8.52
2022-12-01T07:53:54.331Z,7.30
2022-12-01T07:56:22.152Z,7.40
2022-12-01T07:58:49.155Z,7.60
2022-12-01T08:01:21.804Z,7.55
2022-12-01T08:03:50.313Z,7.63
2022-12-01T08:06:17.846Z,8.75
2022-12-01T08:08:44.907Z,8.02
2022-12-01T08:11:14.475Z,7.13
2022-12-01T08:13:41.941Z,7.50
2022-12-01T08:16:10.526Z,8.63
2022-12-01T08:18:38.959Z,8.32
2022-12-01T08:21:07.198Z,7.68
2022-12-01T08:23:34.424Z,8.02
2022-12-01T08:26:07.153Z,9.30
2022-12-01T08:28:36.330Z,8.73
2022-12-01T08:31:09.145Z,8.00
2022-12-01T08:33:35.964Z,9.05
2022-12-01T08:36:03.595Z,10.82
2022-12-01T08:38:30.419Z,10.07
2022-12-01T08:41:05.164Z,7.97
2022-12-01T08:43:56.603Z,8.02
2022-12-01T08:46:18.490Z,8.50
2022-12-01T08:48:45.356Z,8.13
2022-12-01T08:51:15.697Z,8.75
2022-12-01T08:53:45.806Z,9.05
2022-12-01T08:56:15.613Z,8.80
2022-12-01T08:58:42.670Z,10.90
2022-12-01T09:01:12.380Z,10.30
2022-12-01T09:03:40.222Z,8.35
2022-12-01T09:06:12.111Z,8.93
2022-12-01T09:08:39.099Z,8.20
2022-12-01T09:11:08.540Z,8.45
2022-12-01T09:13:36.415Z,7.97
2022-12-01T09:16:06.003Z,8.20
2022-12-01T09:18:33.425Z,9.52
2022-12-01T09:21:00.957Z,8.02
2022-12-01T09:23:27.712Z,7.93
2022-12-01T09:25:54.311Z,8.00
2022-12-01T09:28:21.077Z,7.50
2022-12-01T09:30:47.880Z,7.28
2022-12-01T09:33:14.604Z,7.28
2022-12-01T09:35:41.333Z,8.27
2022-12-01T09:38:07.994Z,7.90
2022-12-01T09:40:38.316Z,6.78
2022-12-01T09:43:12.894Z,6.90
2022-12-01T09:45:45.261Z,7.47
2022-12-01T09:48:25.603Z,6.68
2022-12-01T09:50:53.012Z,6.23
2022-12-01T09:53:23.810Z,6.78
2022-12-01T09:55:50.832Z,6.45
2022-12-01T09:58:25.755Z,7.47
2022-12-01T10:00:54.194Z,6.80
2022-12-01T10:03:50.542Z,9.68
2022-12-01T10:06:34.063Z,11.90
2022-12-01T10:09:39.143Z,13.10
2022-12-01T10:12:18.005Z,7.50
2022-12-01T10:14:46.579Z,7.95
2022-12-01T10:17:39.507Z,8.90
2022-12-01T10:20:24.450Z,10.65
2022-12-01T10:23:33.302Z,7.47
2022-12-01T10:26:09.933Z,5.72
2022-12-01T10:28:36.506Z,6.40
2022-12-01T10:31:34.626Z,7.90
2022-12-01T10:34:06.300Z,6.60
2022-12-01T10:36:34.661Z,5.63
2022-12-01T10:39:04.808Z,5.93
2022-12-01T10:41:36.134Z,7.68
2022-12-01T10:44:05.749Z,6.57
2022-12-01T10:46:43.393Z,6.43
2022-12-01T10:49:15.295Z,6.25
2022-12-01T10:51:57.434Z,5.72
2022-12-01T10:54:33.103Z,6.00
2022-12-01T10:57:00.832Z,6.00
2022-12-01T11:00:25.489Z,5.70
2022-12-01T11:02:59.667Z,6.00
2022-12-01T11:05:39.073Z,6.57
2022-12-01T11:08:06.075Z,7.93
2022-12-01T11:10:33.887Z,6.80
2022-12-01T11:13:23.951Z,7.90
2022-12-01T11:15:53.315Z,8.23
2022-12-01T11:18:24.454Z,6.88
2022-12-01T11:21:27.790Z,7.78
2022-12-01T11:23:56.216Z,7.10
2022-12-01T11:26:32.353Z,6.45
2022-12-01T11:29:02.588Z,5.97
2022-12-01T11:31:55.755Z,6.18
2022-12-01T11:34:34.268Z,5.95
2022-12-01T11:37:04.421Z,6.53
2022-12-01T11:39:39.407Z,6.60
2022-12-01T11:42:12.259Z,6.35
2022-12-01T11:44:51.359Z,6.40
2022-12-01T11:47:25.119Z,6.63
2022-12-01T11:50:00.003Z,6.07
2022-12-01T11:52:30.845Z,6.53
2022-12-01T11:55:08.449Z,7.10
2022-12-01T11:57:39.049Z,5.90
2022-12-01T12:00:16.345Z,6.20
2022-12-01T12:02:57.952Z,7.50
2022-12-01T12:05:33.439Z,5.90
2022-12-01T12:08:34.991Z,6.55
2022-12-01T12:11:43.281Z,6.55
2022-12-01T12:14:21.973Z,6.05
2022-12-01T12:17:12.672Z,6.57
2022-12-01T12:20:08.505Z,7.80
2022-12-01T12:23:01.289Z,8.73
2022-12-01T12:25:52.070Z,6.95
2022-12-01T12:28:34.454Z,5.53
2022-12-01T12:31:29.629Z,5.77
2022-12-01T12:34:22.899Z,6.25
2022-12-01T12:37:01.301Z,5.30
2022-12-01T12:39:59.210Z,6.22
2022-12-01T12:43:04.407Z,5.45
2022-12-01T12:45:49.543Z,8.43
2022-12-01T12:48:38.627Z,5.75
2022-12-01T12:51:21.099Z,8.20
2022-12-01T12:53:59.865Z,5.90
2022-12-01T12:56:30.510Z,9.43
2022-12-01T12:59:01.324Z,9.80
2022-12-01T13:01:38.460Z,6.57
2022-12-01T13:04:13.578Z,6.70
2022-12-01T13:06:50.056Z,5.22
2022-12-01T13:09:19.433Z,5.80
2022-12-01T13:11:52.012Z,5.17
2022-12-01T13:14:27.903Z,5.90
2022-12-01T13:17:01.577Z,8.18
2022-12-01T13:19:37.170Z,6.15
2022-12-01T13:22:05.868Z,6.65
2022-12-01T13:24:32.856Z,9.10
2022-12-01T13:27:14.114Z,6.57
2022-12-01T13:29:50.094Z,8.63
2022-12-01T13:32:36.820Z,7.20
2022-12-01T13:35:17.554Z,10.40
2022-12-01T13:37:44.221Z,7.27
2022-12-01T13:40:21.836Z,7.93
2022-12-01T13:43:07.053Z,7.03
2022-12-01T13:45:40.019Z,6.78
2022-12-01T13:48:26.447Z,7.35
2022-12-01T13:50:52.989Z,7.27
2022-12-01T13:53:19.580Z,8.27
2022-12-01T13:56:24.303Z,9.38
2022-12-01T13:58:53.822Z,9.07
2022-12-01T14:01:20.879Z,7.85
2022-12-01T14:03:56.986Z,8.50
2022-12-01T14:06:36.084Z,8.23
2022-12-01T14:09:16.643Z,7.25
2022-12-01T14:12:05.761Z,8.95
2022-12-01T14:14:38.956Z,9.63
2022-12-01T14:17:06.380Z,8.63
2022-12-01T14:19:52.055Z,9.00
2022-12-01T14:22:39.180Z,8.73
2022-12-01T14:25:29.137Z,7.05
2022-12-01T14:28:04.418Z,7.15
2022-12-01T14:30:46.172Z,7.03
2022-12-01T14:33:57.804Z,6.68
2022-12-01T14:36:24.421Z,7.68
2022-12-01T14:38:54.608Z,6.50
2022-12-01T14:41:46.091Z,6.50
2022-12-01T14:44:36.314Z,6.47
2022-12-01T14:47:11.777Z,6.38
2022-12-01T14:49:42.058Z,6.10
2022-12-01T14:52:29.700Z,5.25
2022-12-01T14:54:59.366Z,5.80
2022-12-01T14:57:32.575Z,5.27
2022-12-01T15:00:10.936Z,5.22
2022-12-01T15:02:48.594Z,6.07
2022-12-01T15:05:20.586Z,5.80
2022-12-01T15:07:50.215Z,5.40
2022-12-01T15:10:35.343Z,5.32
2022-12-01T15:13:30.756Z,5.20
2022-12-01T15:15:58.811Z,5.32
2022-12-01T15:18:33.818Z,5.47
2022-12-01T15:21:12.141Z,5.50
2022-12-01T15:23:54.120Z,5.10
2022-12-01T15:26:23.924Z,5.00
2022-12-01T15:29:03.220Z,5.70
2022-12-01T15:31:30.015Z,4.22
2022-12-01T15:33:56.948Z,5.50
2022-12-01T15:36:24.027Z,4.97
2022-12-01T15:38:50.830Z,5.68
2022-12-01T15:41:29.491Z,5.22
2022-12-01T15:43:58.905Z,4.72
2022-12-01T15:46:31.636Z,5.30
2022-12-01T15:49:09.390Z,5.73
2022-12-01T15:51:36.295Z,6.60
2022-12-01T15:54:03.637Z,4.80
2022-12-01T15:56:37.987Z,6.68
2022-12-01T15:59:13.559Z,6.70
2022-12-01T16:01:44.317Z,7.27
2022-12-01T16:04:26.287Z,6.60
2022-12-01T16:07:03.288Z,7.40
2022-12-01T16:09:35.771Z,6.53
2022-12-01T16:12:04.477Z,6.10
2022-12-01T16:14:32.316Z,5.80
2022-12-01T16:17:00.099Z,5.90
2022-12-01T16:19:32.424Z,6.38
2022-12-01T16:22:11.539Z,5.75
2022-12-01T16:24:46.656Z,5.93
2022-12-01T16:27:23.674Z,6.73
2022-12-01T16:30:00.841Z,7.18
2022-12-01T16:32:35.568Z,6.57
2022-12-01T16:35:04.265Z,6.85
2022-12-01T16:37:31.432Z,7.93
2022-12-01T16:39:58.749Z,6.70
2022-12-01T16:42:25.399Z,7.78
2022-12-01T16:44:52.797Z,8.07
2022-12-01T16:47:24.547Z,8.05
2022-12-01T16:49:52.378Z,7.50
2022-12-01T16:52:43.692Z,8.67
2022-12-01T16:55:24.046Z,9.20
2022-12-01T16:57:50.693Z,11.73
2022-12-01T17:00:17.610Z,10.80
2022-12-01T17:02:44.373Z,13.13
2022-12-01T17:05:11.737Z,17.87
2022-12-01T17:07:38.445Z,17.42
2022-12-01T17:10:06.670Z,12.73
2022-12-01T17:12:33.333Z,10.20
2022-12-01T17:14:59.954Z,11.90
2022-12-01T17:17:29.363Z,10.20
2022-12-01T17:19:56.179Z,9.27
2022-12-01T17:22:23.067Z,9.27
2022-12-01T17:24:50.220Z,9.82
2022-12-01T17:27:17.179Z,10.45
2022-12-01T17:29:46.254Z,8.60
2022-12-01T17:32:14.207Z,8.85
2022-12-01T17:34:41.155Z,9.50
2022-12-01T17:37:10.115Z,9.40
2022-12-01T17:39:36.811Z,8.93
2022-12-01T17:42:03.827Z,10.30
2022-12-01T17:44:30.440Z,11.10
2022-12-01T17:46:57.238Z,9.18
2022-12-01T17:49:23.902Z,8.68
2022-12-01T17:51:50.646Z,10.60
2022-12-01T17:54:17.301Z,9.10
2022-12-01T17:56:43.957Z,9.75
2022-12-01T17:59:10.725Z,8.85
2022-12-01T18:01:37.642Z,9.35
2022-12-01T18:04:04.539Z,8.93
2022-12-01T18:06:31.428Z,8.27
2022-12-01T18:09:00.656Z,10.20
2022-12-01T18:11:27.974Z,10.13
2022-12-01T18:13:54.840Z,11.00
2022-12-01T18:16:27.032Z,11.35
2022-12-01T18:18:54.765Z,9.55
2022-12-01T18:21:23.598Z,9.10
2022-12-01T18:23:52.270Z,9.32
2022-12-01T18:26:20.489Z,9.50
2022-12-01T18:28:47.200Z,9.88
2022-12-01T18:31:15.962Z,10.77
2022-12-01T18:33:44.017Z,10.73
2022-12-01T18:36:38.562Z,10.93
2022-12-01T18:39:07.724Z,9.20
2022-12-01T18:41:35.496Z,7.95
2022-12-01T18:44:02.769Z,9.90
2022-12-01T18:46:29.609Z,11.88
2022-12-01T18:49:04.705Z,13.52
2022-12-01T18:51:33.604Z,11.50
2022-12-01T18:54:01.588Z,10.60
2022-12-01T18:56:29.424Z,11.53
2022-12-01T18:58:58.025Z,11.88
2022-12-01T19:01:27.447Z,10.80
2022-12-01T19:03:55.541Z,10.38
2022-12-01T19:06:23.407Z,11.13
2022-12-01T19:08:52.041Z,10.87
2022-12-01T19:11:18.832Z,14.77
2022-12-01T19:13:46.183Z,11.35
2022-12-01T19:16:15.459Z,10.95
2022-12-01T19:18:42.870Z,11.02
2022-12-01T19:21:12.559Z,7.97
2022-12-01T19:23:40.224Z,23.42
2022-12-01T19:26:10.112Z,18.60
2022-12-01T19:28:37.450Z,15.60
2022-12-01T19:31:08.931Z,11.15
2022-12-01T19:33:35.706Z,14.50
2022-12-01T19:36:13.729Z,13.27
2022-12-01T19:38:40.720Z,15.57
2022-12-01T19:41:08.977Z,12.95
2022-12-01T19:43:36.460Z,14.40
2022-12-01T19:46:12.555Z,16.57
2022-12-01T19:48:39.588Z,13.82
2022-12-01T19:51:07.030Z,10.75
2022-12-01T19:53:34.272Z,9.95
2022-12-01T19:56:05.092Z,10.60
2022-12-01T19:58:35.285Z,13.77
2022-12-01T20:01:07.165Z,25.98
2022-12-01T20:03:35.832Z,15.93
2022-12-01T20:06:04.618Z,14.52
2022-12-01T20:08:35.567Z,18.45
2022-12-01T20:11:06.262Z,11.97
2022-12-01T20:13:37.894Z,11.30
2022-12-01T20:16:06.017Z,12.80
2022-12-01T20:18:33.097Z,10.55
2022-12-01T20:21:10.741Z,11.40
2022-12-01T20:23:37.438Z,13.02
2022-12-01T20:26:06.975Z,14.45
2022-12-01T20:28:34.218Z,12.18
2022-12-01T20:31:01.026Z,9.98
2022-12-01T20:33:28.302Z,11.60
2022-12-01T20:35:55.045Z,10.15
2022-12-01T20:38:27.022Z,9.05
2022-12-01T20:40:54.400Z,7.88
2022-12-01T20:43:21.109Z,7.50
2022-12-01T20:45:47.842Z,7.75
2022-12-01T20:48:14.694Z,7.93
2022-12-01T20:50:41.361Z,8.73
2022-12-01T20:53:08.047Z,9.65
2022-12-01T20:55:36.751Z,6.75
2022-12-01T20:58:10.300Z,8.43
2022-12-01T21:00:40.339Z,7.63
2022-12-01T21:03:07.169Z,9.48
2022-12-01T21:05:33.918Z,10.40
2022-12-01T21:08:01.376Z,8.00
2022-12-01T21:10:28.472Z,6.65
2022-12-01T21:13:18.261Z,10.75
2022-12-01T21:16:01.845Z,10.00
2022-12-01T21:18:41.371Z,10.27
2022-12-01T21:21:21.249Z,10.52
2022-12-01T21:23:53.696Z,10.88
2022-12-01T21:26:20.364Z,11.32
2022-12-01T21:28:47.096Z,9.88
2022-12-01T21:31:15.314Z,8.48
2022-12-01T21:33:42.530Z,7.35
2022-12-01T21:36:21.764Z,8.88
2022-12-01T21:38:53.280Z,9.40
2022-12-01T21:41:28.126Z,11.60
2022-12-01T21:44:00.241Z,11.65
2022-12-01T21:46:27.553Z,9.75
2022-12-01T21:48:54.645Z,9.18
2022-12-01T21:51:23.204Z,11.27
2022-12-01T21:53:51.409Z,10.02
2022-12-01T21:56:24.448Z,10.25
2022-12-01T21:58:52.395Z,8.80
2022-12-01T22:01:32.505Z,7.28
2022-12-01T22:04:02.626Z,6.93
2022-12-01T22:06:38.070Z,6.97
2022-12-01T22:09:31.276Z,7.75
2022-12-01T22:12:08.292Z,7.00
2022-12-01T22:14:36.100Z,9.82
2022-12-01T22:17:18.532Z,12.65
2022-12-01T22:19:49.689Z,10.20
2022-12-01T22:22:23.676Z,11.38
2022-12-01T22:24:59.486Z,10.35
2022-12-01T22:27:39.414Z,7.38
2022-12-01T22:30:05.991Z,6.90
2022-12-01T22:32:57.116Z,7.90
2022-12-01T22:35:28.422Z,6.95
2022-12-01T22:38:15.177Z,10.43
2022-12-01T22:41:03.403Z,7.72
2022-12-01T22:43:39.149Z,7.40
2022-12-01T22:46:25.869Z,7.60
2022-12-01T22:49:13.564Z,7.28
2022-12-01T22:51:47.929Z,8.85
2022-12-01T22:54:14.505Z,8.07
2022-12-01T22:57:05.394Z,7.30
2022-12-01T22:59:36.632Z,8.15
2022-12-01T23:02:25.166Z,8.50
2022-12-01T23:05:07.552Z,7.47
2022-12-01T23:07:36.954Z,8.30
2022-12-01T23:10:17.652Z,11.43
2022-12-01T23:12:46.183Z,8.18
2022-12-01T23:15:32.160Z,9.02
2022-12-01T23:18:22.136Z,8.75
2022-12-01T23:20:51.842Z,8.55
2022-12-01T23:23:21.369Z,8.53
2022-12-01T23:25:50.492Z,9.07
2022-12-01T23:28:18.408Z,9.07
2022-12-01T23:30:47.681Z,9.30
2022-12-01T23:33:28.715Z,10.90
2022-12-01T23:36:05.521Z,9.67
2022-12-01T23:38:38.680Z,9.48
2022-12-01T23:41:08.309Z,9.82
2022-12-01T23:43:42.694Z,8.70
2022-12-01T23:46:18.925Z,8.45
2022-12-01T23:48:49.235Z,10.15
2022-12-01T23:51:18.396Z,8.82
2022-12-01T23:53:46.681Z,8.68
2022-12-01T23:56:19.734Z,8.43
2022-12-01T23:58:46.529Z,9.02
